createdAt,value
2023-12-23T00:00:27.566Z,7.60
2023-12-23T00:02:54.968Z,7.59
2023-12-23T00:05:23.849Z,7.49
2023-12-23T00:07:52.524Z,7.42
2023-12-23T00:10:21.311Z,7.35
2023-12-23T00:12:49.808Z,7.33
2023-12-23T00:15:19.689Z,7.32
2023-12-23T00:17:50.667Z,7.39
2023-12-23T00:20:19.759Z,7.36
2023-12-23T00:22:48.804Z,7.30
2023-12-23T00:25:17.262Z,7.41
2023-12-23T00:27:45.983Z,7.44
2023-12-23T00:30:17.107Z,7.42
2023-12-23T00:32:47.720Z,7.38
2023-12-23T00:35:16.448Z,7.35
2023-12-23T00:37:45.113Z,7.44
2023-12-23T00:40:14.189Z,7.26
2023-12-23T00:42:42.730Z,7.40
2023-12-23T00:45:11.213Z,7.31
2023-12-23T00:47:39.717Z,7.13
2023-12-23T00:50:11.596Z,7.13
2023-12-23T00:52:40.122Z,7.13
2023-12-23T00:55:09.791Z,7.09
2023-12-23T00:57:38.308Z,7.04
2023-12-23T01:00:09.077Z,7.04
2023-12-23T01:02:37.504Z,6.98
2023-12-23T01:05:07.142Z,6.89
2023-12-23T01:07:36.981Z,6.96
2023-12-23T01:10:06.753Z,6.72
2023-12-23T01:12:35.236Z,6.96
2023-12-23T01:15:04.063Z,6.97
2023-12-23T01:17:32.568Z,6.90
2023-12-23T01:20:02.057Z,6.89
2023-12-23T01:22:30.560Z,6.90
2023-12-23T01:25:00.408Z,6.51
2023-12-23T01:27:28.903Z,6.77
2023-12-23T01:29:57.398Z,6.96
2023-12-23T01:32:25.817Z,6.97
2023-12-23T01:34:54.208Z,6.92
2023-12-23T01:37:24.798Z,6.94
2023-12-23T01:39:53.192Z,6.94
2023-12-23T01:42:23.179Z,6.81
2023-12-23T01:44:51.669Z,6.96
2023-12-23T01:47:20.344Z,6.97
2023-12-23T01:49:49.953Z,6.97
2023-12-23T01:52:18.754Z,6.96
2023-12-23T01:54:48.018Z,6.60
2023-12-23T01:57:16.534Z,6.99
2023-12-23T01:59:46.568Z,6.32
2023-12-23T02:02:16.171Z,6.69
2023-12-23T02:04:44.901Z,7.01
2023-12-23T02:07:12.431Z,6.99
2023-12-23T02:09:41.713Z,6.97
2023-12-23T02:12:22.115Z,6.96
2023-12-23T02:15:04.311Z,6.90
2023-12-23T02:17:33.651Z,6.83
2023-12-23T02:20:02.351Z,6.50
2023-12-23T02:22:32.460Z,6.96
2023-12-23T02:25:01.140Z,6.98
2023-12-23T02:27:35.547Z,6.98
2023-12-23T02:30:04.545Z,6.68
2023-12-23T02:32:33.821Z,6.77
2023-12-23T02:35:02.580Z,6.33
2023-12-23T02:37:32.391Z,6.95
2023-12-23T02:40:01.091Z,6.90
2023-12-23T02:42:29.625Z,6.96
2023-12-23T02:44:58.011Z,6.99
2023-12-23T02:47:26.509Z,6.99
2023-12-23T02:49:54.899Z,6.99
2023-12-23T02:52:26.349Z,6.97
2023-12-23T02:54:56.148Z,6.96
2023-12-23T02:57:24.568Z,6.85
2023-12-23T02:59:52.953Z,6.94
2023-12-23T03:02:23.446Z,7.01
2023-12-23T03:04:51.890Z,6.94
2023-12-23T03:07:20.297Z,6.98
2023-12-23T03:09:48.731Z,6.99
2023-12-23T03:12:18.493Z,6.93
2023-12-23T03:14:47.784Z,6.95
2023-12-23T03:17:16.756Z,6.97
2023-12-23T03:19:45.393Z,6.72
2023-12-23T03:22:13.749Z,7.01
2023-12-23T03:24:42.529Z,7.02
2023-12-23T03:27:11.039Z,7.03
2023-12-23T03:29:40.826Z,6.69
2023-12-23T03:32:09.352Z,6.60
2023-12-23T03:34:38.235Z,6.91
2023-12-23T03:37:06.683Z,7.05
2023-12-23T03:39:35.108Z,6.74
2023-12-23T03:42:04.697Z,7.01
2023-12-23T03:44:33.150Z,6.90
2023-12-23T03:47:02.897Z,7.06
2023-12-23T03:49:31.394Z,7.09
2023-12-23T03:51:59.807Z,7.06
2023-12-23T03:54:28.253Z,6.92
2023-12-23T03:56:56.729Z,6.99
2023-12-23T03:59:25.121Z,6.94
2023-12-23T04:01:53.549Z,7.02
2023-12-23T04:04:23.447Z,6.73
2023-12-23T04:06:51.977Z,6.79
2023-12-23T04:09:20.467Z,7.09
2023-12-23T04:11:48.858Z,7.10
2023-12-23T04:14:17.491Z,7.00
2023-12-23T04:16:46.041Z,7.09
2023-12-23T04:19:14.754Z,7.07
2023-12-23T04:21:44.581Z,7.09
2023-12-23T04:24:13.212Z,7.09
2023-12-23T04:26:41.673Z,6.69
2023-12-23T04:29:10.178Z,7.05
2023-12-23T04:31:38.770Z,6.91
2023-12-23T04:34:08.650Z,7.06
2023-12-23T04:36:37.445Z,7.06
2023-12-23T04:39:07.411Z,7.11
2023-12-23T04:41:36.060Z,7.04
2023-12-23T04:44:05.377Z,7.10
2023-12-23T04:46:33.840Z,7.16
2023-12-23T04:49:02.292Z,6.85
2023-12-23T04:51:30.880Z,7.20
2023-12-23T04:53:59.581Z,7.23
2023-12-23T04:56:29.495Z,7.27
2023-12-23T04:58:58.148Z,7.11
2023-12-23T05:01:26.925Z,7.34
2023-12-23T05:03:56.356Z,7.37
2023-12-23T05:06:24.757Z,7.42
2023-12-23T05:08:53.324Z,7.32
2023-12-23T05:11:21.934Z,7.47
2023-12-23T05:13:51.830Z,7.47
2023-12-23T05:16:20.845Z,7.43
2023-12-23T05:18:49.628Z,7.57
2023-12-23T05:21:18.172Z,7.61
2023-12-23T05:23:46.754Z,7.46
2023-12-23T05:26:19.947Z,7.62
2023-12-23T05:28:48.651Z,7.65
2023-12-23T05:31:19.110Z,7.68
2023-12-23T05:33:48.357Z,7.35
2023-12-23T05:36:16.945Z,7.71
2023-12-23T05:38:45.518Z,7.73
2023-12-23T05:41:14.033Z,7.48
2023-12-23T05:43:42.493Z,7.75
2023-12-23T05:46:11.439Z,7.71
2023-12-23T05:48:41.272Z,7.63
2023-12-23T05:51:10.101Z,7.75
2023-12-23T05:53:38.487Z,7.71
2023-12-23T05:56:08.910Z,7.72
2023-12-23T05:58:37.577Z,7.72
2023-12-23T06:01:07.872Z,7.69
2023-12-23T06:03:36.527Z,7.47
2023-12-23T06:06:07.567Z,7.41
2023-12-23T06:08:36.068Z,7.55
2023-12-23T06:11:05.985Z,7.65
2023-12-23T06:13:34.818Z,7.50
2023-12-23T06:16:08.036Z,7.56
2023-12-23T06:18:36.649Z,7.61
2023-12-23T06:21:06.753Z,7.61
2023-12-23T06:23:35.204Z,7.29
2023-12-23T06:26:04.550Z,7.04
2023-12-23T06:28:33.105Z,7.59
2023-12-23T06:31:01.588Z,7.53
2023-12-23T06:33:30.124Z,7.58
2023-12-23T06:35:58.645Z,7.56
2023-12-23T06:38:28.462Z,7.58
2023-12-23T06:40:57.544Z,7.59
2023-12-23T06:43:45.267Z,7.54
2023-12-23T06:46:14.871Z,7.62
2023-12-23T06:48:43.503Z,7.65
2023-12-23T06:51:12.008Z,7.66
2023-12-23T06:53:41.982Z,7.36
2023-12-23T06:56:10.827Z,7.71
2023-12-23T06:58:39.299Z,7.72
2023-12-23T07:01:07.939Z,7.73
2023-12-23T07:03:36.490Z,7.72
2023-12-23T07:06:05.431Z,7.63
2023-12-23T07:08:35.360Z,7.23
2023-12-23T07:11:07.079Z,7.77
2023-12-23T07:13:35.914Z,7.63
2023-12-23T07:16:06.056Z,7.64
2023-12-23T07:18:34.588Z,7.77
2023-12-23T07:21:03.893Z,7.79
2023-12-23T07:23:32.389Z,7.82
2023-12-23T07:26:00.992Z,7.85
2023-12-23T07:28:31.269Z,7.84
2023-12-23T07:30:59.851Z,7.75
2023-12-23T07:33:28.456Z,7.86
2023-12-23T07:35:56.992Z,7.88
2023-12-23T07:38:25.863Z,7.51
2023-12-23T07:40:54.336Z,7.28
2023-12-23T07:43:23.716Z,7.87
2023-12-23T07:45:53.578Z,7.84
2023-12-23T07:48:22.646Z,7.82
2023-12-23T07:50:51.190Z,7.86
2023-12-23T07:53:19.776Z,7.85
2023-12-23T07:55:49.199Z,7.87
2023-12-23T07:58:17.749Z,7.58
2023-12-23T08:00:46.666Z,7.80
2023-12-23T08:03:16.605Z,7.79
2023-12-23T08:05:45.397Z,7.87
2023-12-23T08:08:14.868Z,7.87
2023-12-23T08:10:47.158Z,7.86
2023-12-23T08:13:15.606Z,7.86
2023-12-23T08:15:44.051Z,7.85
2023-12-23T08:18:13.381Z,7.69
2023-12-23T08:20:43.495Z,7.93
2023-12-23T08:23:11.939Z,8.02
2023-12-23T08:25:40.920Z,8.04
2023-12-23T08:28:09.562Z,8.04
2023-12-23T08:30:38.370Z,8.05
2023-12-23T08:33:07.349Z,7.99
2023-12-23T08:35:35.938Z,8.00
2023-12-23T08:38:06.328Z,8.10
2023-12-23T08:40:34.809Z,8.17
2023-12-23T08:43:03.438Z,8.15
2023-12-23T08:45:32.083Z,8.22
2023-12-23T08:48:00.645Z,8.21
2023-12-23T08:50:29.277Z,8.20
2023-12-23T08:52:58.145Z,8.17
2023-12-23T08:55:28.163Z,8.30
2023-12-23T08:57:57.227Z,8.33
2023-12-23T09:00:25.704Z,7.65
2023-12-23T09:02:54.274Z,8.27
2023-12-23T09:05:22.897Z,8.18
2023-12-23T09:07:51.695Z,8.04
2023-12-23T09:10:20.554Z,7.86
2023-12-23T09:12:50.308Z,8.29
2023-12-23T09:15:18.810Z,8.31
2023-12-23T09:17:47.410Z,8.32
2023-12-23T09:20:16.265Z,8.33
2023-12-23T09:22:46.005Z,8.13
2023-12-23T09:25:15.708Z,8.14
2023-12-23T09:27:44.167Z,8.20
2023-12-23T09:30:14.946Z,8.21
2023-12-23T09:32:43.540Z,8.21
2023-12-23T09:35:12.155Z,8.11
2023-12-23T09:37:40.659Z,8.15
2023-12-23T09:40:11.659Z,8.14
2023-12-23T09:42:40.384Z,8.14
2023-12-23T09:45:09.717Z,8.12
2023-12-23T09:47:39.689Z,8.10
2023-12-23T09:50:10.144Z,8.13
2023-12-23T09:52:38.864Z,8.11
2023-12-23T09:55:12.930Z,7.27
2023-12-23T09:57:42.029Z,8.10
2023-12-23T10:00:12.219Z,7.99
2023-12-23T10:02:43.826Z,7.97
2023-12-23T10:05:12.390Z,8.10
2023-12-23T10:07:40.876Z,7.94
2023-12-23T10:10:10.298Z,8.00
2023-12-23T10:12:38.760Z,8.06
2023-12-23T10:15:08.386Z,7.66
2023-12-23T10:17:38.406Z,8.00
2023-12-23T10:20:09.612Z,8.08
2023-12-23T10:22:37.944Z,8.15
2023-12-23T10:25:07.172Z,8.18
2023-12-23T10:27:35.842Z,8.22
2023-12-23T10:30:11.870Z,8.26
2023-12-23T10:32:41.604Z,8.35
2023-12-23T10:35:16.848Z,8.32
2023-12-23T10:37:45.530Z,8.38
2023-12-23T10:40:20.856Z,8.39
2023-12-23T10:42:52.414Z,8.50
2023-12-23T10:45:23.060Z,8.44
2023-12-23T10:47:53.697Z,8.55
2023-12-23T10:50:25.543Z,8.36
2023-12-23T10:52:55.881Z,8.11
2023-12-23T10:55:27.541Z,8.56
2023-12-23T10:57:58.795Z,8.59
2023-12-23T11:00:28.015Z,8.63
2023-12-23T11:03:00.612Z,8.65
2023-12-23T11:05:31.378Z,8.54
2023-12-23T11:08:07.435Z,8.56
2023-12-23T11:10:44.390Z,8.69
2023-12-23T11:13:14.038Z,8.58
2023-12-23T11:15:43.683Z,8.62
2023-12-23T11:18:12.736Z,8.64
2023-12-23T11:20:51.408Z,8.43
2023-12-23T11:23:35.648Z,8.64
2023-12-23T11:26:06.207Z,8.64
2023-12-23T11:28:38.715Z,8.64
2023-12-23T11:31:07.590Z,8.17
2023-12-23T11:33:38.015Z,8.65
2023-12-23T11:36:09.456Z,8.69
2023-12-23T11:38:49.790Z,8.39
2023-12-23T11:41:19.007Z,8.67
2023-12-23T11:43:49.132Z,8.73
2023-12-23T11:46:19.724Z,8.67
2023-12-23T11:48:48.069Z,8.73
2023-12-23T11:51:17.908Z,8.77
2023-12-23T11:53:46.508Z,8.75
2023-12-23T11:56:16.816Z,8.50
2023-12-23T11:58:45.369Z,8.66
2023-12-23T12:01:13.851Z,8.74
2023-12-23T12:03:42.392Z,8.78
2023-12-23T12:06:11.189Z,8.80
2023-12-23T12:08:41.110Z,8.75
2023-12-23T12:11:10.069Z,8.75
2023-12-23T12:13:38.928Z,8.53
2023-12-23T12:16:08.457Z,8.71
2023-12-23T12:18:37.163Z,8.78
2023-12-23T12:21:05.855Z,8.87
2023-12-23T12:23:34.312Z,8.78
2023-12-23T12:26:04.609Z,8.54
2023-12-23T12:28:33.867Z,8.92
2023-12-23T12:31:12.985Z,8.92
2023-12-23T12:33:45.132Z,8.97
2023-12-23T12:36:17.470Z,9.02
2023-12-23T12:38:46.905Z,9.03
2023-12-23T12:41:17.751Z,9.02
2023-12-23T12:43:46.943Z,9.05
2023-12-23T12:46:17.183Z,9.08
2023-12-23T12:48:47.408Z,9.00
2023-12-23T12:51:18.592Z,9.08
2023-12-23T12:53:48.435Z,8.30
2023-12-23T12:56:22.981Z,9.13
2023-12-23T12:58:52.775Z,9.16
2023-12-23T13:01:22.099Z,9.17
2023-12-23T13:03:50.780Z,9.11
2023-12-23T13:06:19.280Z,9.15
2023-12-23T13:08:47.884Z,9.18
2023-12-23T13:11:17.717Z,9.15
2023-12-23T13:13:46.631Z,8.92
2023-12-23T13:16:15.473Z,8.90
2023-12-23T13:18:52.807Z,9.33
2023-12-23T13:21:25.658Z,9.24
2023-12-23T13:23:54.896Z,9.18
2023-12-23T13:26:24.966Z,9.22
2023-12-23T13:28:53.623Z,9.25
2023-12-23T13:31:22.543Z,9.17
2023-12-23T13:33:50.006Z,9.26
2023-12-23T13:36:18.593Z,9.26
2023-12-23T13:38:47.325Z,9.23
2023-12-23T13:41:20.217Z,9.23
2023-12-23T13:43:50.189Z,9.19
2023-12-23T13:46:18.586Z,9.33
2023-12-23T13:48:47.243Z,8.92
2023-12-23T13:51:15.969Z,9.22
2023-12-23T13:53:45.299Z,8.76
2023-12-23T13:56:13.761Z,9.06
2023-12-23T13:58:42.148Z,9.12
2023-12-23T14:01:12.193Z,9.09
2023-12-23T14:03:40.769Z,9.08
2023-12-23T14:06:09.421Z,9.09
2023-12-23T14:08:37.944Z,9.09
2023-12-23T14:11:06.520Z,9.10
2023-12-23T14:13:34.968Z,9.04
2023-12-23T14:16:03.374Z,9.09
2023-12-23T14:18:33.448Z,9.06
2023-12-23T14:21:03.217Z,9.05
2023-12-23T14:23:31.809Z,9.08
2023-12-23T14:26:00.535Z,9.09
2023-12-23T14:28:28.980Z,9.11
2023-12-23T14:30:57.572Z,9.11
2023-12-23T14:33:26.556Z,9.11
2023-12-23T14:35:57.070Z,8.98
2023-12-23T14:38:25.647Z,9.12
2023-12-23T14:40:54.036Z,9.14
2023-12-23T14:43:22.964Z,9.11
2023-12-23T14:45:51.343Z,8.97
2023-12-23T14:48:19.893Z,9.14
2023-12-23T14:50:48.347Z,9.14
2023-12-23T14:53:18.582Z,9.13
2023-12-23T14:55:47.009Z,9.19
2023-12-23T14:58:16.084Z,9.20
2023-12-23T15:00:44.597Z,9.19
2023-12-23T15:03:13.048Z,9.19
2023-12-23T15:05:41.714Z,9.16
2023-12-23T15:08:10.235Z,9.16
2023-12-23T15:10:40.516Z,9.13
2023-12-23T15:13:09.072Z,9.13
2023-12-23T15:15:38.171Z,9.07
2023-12-23T15:18:10.447Z,9.09
2023-12-23T15:20:38.952Z,8.99
2023-12-23T15:23:07.716Z,9.06
2023-12-23T15:25:36.286Z,8.96
2023-12-23T15:28:06.864Z,8.65
2023-12-23T15:30:35.881Z,8.71
2023-12-23T15:33:04.640Z,8.97
2023-12-23T15:35:33.261Z,8.95
2023-12-23T15:38:01.838Z,8.93
2023-12-23T15:40:30.336Z,8.90
2023-12-23T15:42:58.661Z,8.96
2023-12-23T15:45:28.376Z,8.95
2023-12-23T15:47:56.867Z,8.94
2023-12-23T15:50:25.520Z,8.87
2023-12-23T15:52:54.189Z,8.93
2023-12-23T15:55:23.023Z,8.21
2023-12-23T15:57:51.419Z,8.93
2023-12-23T16:00:20.697Z,8.95
2023-12-23T16:02:52.096Z,8.99
2023-12-23T16:05:21.077Z,9.02
2023-12-23T16:07:50.019Z,9.07
2023-12-23T16:10:18.750Z,8.97
2023-12-23T16:12:47.333Z,8.96
2023-12-23T16:15:16.484Z,9.05
2023-12-23T16:17:45.546Z,8.88
2023-12-23T16:20:15.841Z,9.09
2023-12-23T16:22:44.880Z,9.13
2023-12-23T16:25:13.409Z,8.91
2023-12-23T16:27:42.098Z,9.12
2023-12-23T16:30:12.070Z,9.12
2023-12-23T16:32:40.768Z,9.13
2023-12-23T16:35:10.622Z,9.14
2023-12-23T16:37:41.809Z,9.03
2023-12-23T16:40:11.344Z,9.08
2023-12-23T16:42:39.765Z,9.08
2023-12-23T16:45:15.752Z,9.05
2023-12-23T16:47:44.495Z,9.00
2023-12-23T16:50:15.090Z,8.93
2023-12-23T16:52:45.255Z,8.99
2023-12-23T16:55:13.945Z,8.99
2023-12-23T16:57:42.425Z,8.99
2023-12-23T17:00:12.168Z,8.76
2023-12-23T17:02:40.679Z,8.98
2023-12-23T17:05:10.187Z,9.03
2023-12-23T17:07:38.775Z,9.04
2023-12-23T17:10:09.727Z,8.98
2023-12-23T17:12:38.300Z,9.05
2023-12-23T17:15:08.695Z,9.07
2023-12-23T17:17:38.606Z,9.09
2023-12-23T17:20:09.159Z,9.09
2023-12-23T17:22:37.811Z,8.76
2023-12-23T17:25:08.540Z,8.97
2023-12-23T17:27:36.936Z,8.93
2023-12-23T17:30:07.198Z,9.05
2023-12-23T17:32:35.789Z,9.01
2023-12-23T17:35:10.569Z,8.98
2023-12-23T17:37:38.951Z,8.87
2023-12-23T17:40:10.704Z,8.87
2023-12-23T17:42:39.138Z,8.83
2023-12-23T17:45:08.713Z,9.07
2023-12-23T17:47:37.311Z,9.16
2023-12-23T17:50:06.861Z,9.03
2023-12-23T17:52:35.442Z,8.96
2023-12-23T17:55:03.932Z,8.87
2023-12-23T17:57:33.830Z,8.81
2023-12-23T18:00:02.346Z,8.77
2023-12-23T18:02:33.071Z,8.69
2023-12-23T18:05:02.568Z,8.64
2023-12-23T18:07:31.256Z,8.36
2023-12-23T18:09:59.804Z,8.52
2023-12-23T18:12:28.291Z,8.51
2023-12-23T18:14:58.506Z,8.51
2023-12-23T18:17:28.465Z,8.48
2023-12-23T18:19:56.976Z,8.45
2023-12-23T18:22:27.205Z,8.48
2023-12-23T18:24:55.653Z,8.40
2023-12-23T18:27:24.001Z,8.49
2023-12-23T18:29:52.910Z,8.50
2023-12-23T18:32:22.999Z,8.50
2023-12-23T18:34:51.672Z,8.48
2023-12-23T18:37:20.225Z,8.50
2023-12-23T18:39:48.572Z,8.51
2023-12-23T18:42:17.050Z,8.51
2023-12-23T18:44:45.657Z,8.49
2023-12-23T18:47:14.058Z,8.48
2023-12-23T18:49:43.839Z,8.45
2023-12-23T18:52:12.206Z,8.40
2023-12-23T18:54:41.496Z,8.39
2023-12-23T18:57:09.936Z,8.44
2023-12-23T18:59:38.412Z,8.41
2023-12-23T19:02:09.582Z,8.29
2023-12-23T19:04:38.743Z,8.43
2023-12-23T19:07:09.987Z,8.15
2023-12-23T19:09:38.783Z,8.40
2023-12-23T19:12:07.432Z,8.40
2023-12-23T19:14:35.858Z,8.39
2023-12-23T19:17:04.692Z,8.41
2023-12-23T19:19:33.192Z,8.41
2023-12-23T19:22:01.636Z,8.38
2023-12-23T19:24:31.453Z,8.46
2023-12-23T19:27:00.301Z,8.47
2023-12-23T19:29:29.010Z,8.42
2023-12-23T19:31:57.472Z,8.52
2023-12-23T19:34:25.831Z,8.48
2023-12-23T19:36:54.381Z,8.55
2023-12-23T19:39:23.911Z,8.53
2023-12-23T19:41:53.719Z,8.60
2023-12-23T19:44:25.429Z,8.53
2023-12-23T19:46:53.965Z,8.46
2023-12-23T19:49:22.512Z,8.61
2023-12-23T19:51:49.933Z,8.44
2023-12-23T19:54:18.367Z,8.60
2023-12-23T19:56:46.838Z,8.54
2023-12-23T19:59:16.697Z,8.48
2023-12-23T20:01:48.592Z,8.63
2023-12-23T20:04:17.266Z,8.35
2023-12-23T20:06:45.795Z,8.60
2023-12-23T20:09:16.243Z,8.60
2023-12-23T20:11:45.592Z,8.58
2023-12-23T20:14:15.036Z,8.26
2023-12-23T20:16:45.068Z,8.13
2023-12-23T20:19:17.390Z,8.51
2023-12-23T20:21:46.081Z,8.50
2023-12-23T20:24:18.257Z,8.47
2023-12-23T20:26:46.757Z,8.42
2023-12-23T20:29:15.653Z,8.48
2023-12-23T20:31:45.445Z,8.43
2023-12-23T20:34:13.916Z,8.43
2023-12-23T20:36:44.695Z,8.43
2023-12-23T20:39:25.825Z,8.39
2023-12-23T20:41:56.874Z,8.36
2023-12-23T20:44:26.052Z,8.16
2023-12-23T20:46:58.295Z,8.33
2023-12-23T20:49:26.995Z,7.86
2023-12-23T20:51:55.405Z,8.30
2023-12-23T20:54:24.266Z,8.19
2023-12-23T20:56:54.078Z,8.26
2023-12-23T20:59:22.549Z,8.24
2023-12-23T21:01:51.672Z,8.25
2023-12-23T21:04:21.502Z,8.06
2023-12-23T21:06:51.087Z,8.28
2023-12-23T21:09:19.576Z,8.28
2023-12-23T21:11:48.040Z,8.30
2023-12-23T21:14:16.861Z,8.30
2023-12-23T21:16:45.275Z,8.19
2023-12-23T21:19:13.706Z,7.99
2023-12-23T21:21:43.508Z,8.03
2023-12-23T21:24:11.944Z,8.25
2023-12-23T21:26:40.438Z,8.23
2023-12-23T21:29:08.989Z,7.52
2023-12-23T21:31:37.412Z,8.02
2023-12-23T21:34:05.878Z,7.93
2023-12-23T21:36:34.737Z,8.12
2023-12-23T21:39:04.796Z,8.09
2023-12-23T21:41:33.340Z,8.09
2023-12-23T21:44:02.111Z,8.09
2023-12-23T21:46:30.547Z,8.01
2023-12-23T21:49:00.363Z,8.18
2023-12-23T21:51:29.043Z,8.19
2023-12-23T21:53:57.427Z,8.09
2023-12-23T21:56:27.213Z,8.28
2023-12-23T21:58:55.697Z,8.25
2023-12-23T22:01:24.049Z,8.18
2023-12-23T22:03:52.626Z,8.20
2023-12-23T22:06:21.526Z,8.15
2023-12-23T22:08:51.746Z,8.14
2023-12-23T22:11:20.167Z,8.09
2023-12-23T22:13:53.087Z,7.48
2023-12-23T22:16:21.480Z,8.11
2023-12-23T22:18:50.453Z,8.23
2023-12-23T22:21:19.044Z,8.30
2023-12-23T22:23:47.504Z,8.30
2023-12-23T22:26:16.145Z,8.32
2023-12-23T22:28:44.626Z,8.35
2023-12-23T22:31:14.471Z,8.36
2023-12-23T22:33:44.780Z,8.13
2023-12-23T22:36:13.359Z,8.35
2023-12-23T22:38:41.986Z,8.41
2023-12-23T22:41:11.588Z,8.42
2023-12-23T22:43:40.084Z,8.43
2023-12-23T22:46:08.586Z,8.46
2023-12-23T22:48:38.359Z,8.34
2023-12-23T22:51:08.363Z,8.48
2023-12-23T22:53:37.024Z,8.09
2023-12-23T22:56:06.834Z,8.48
2023-12-23T22:58:35.448Z,8.46
2023-12-23T23:01:03.993Z,8.43
2023-12-23T23:03:32.922Z,8.42
2023-12-23T23:06:02.968Z,8.42
2023-12-23T23:08:31.584Z,8.31
2023-12-23T23:11:00.042Z,8.30
2023-12-23T23:13:28.472Z,8.37
2023-12-23T23:15:56.850Z,8.33
2023-12-23T23:18:25.416Z,8.25
2023-12-23T23:20:53.922Z,8.30
2023-12-23T23:23:23.912Z,8.30
2023-12-23T23:25:52.331Z,8.23
2023-12-23T23:28:20.819Z,7.97
2023-12-23T23:30:50.472Z,8.18
2023-12-23T23:33:19.176Z,8.22
2023-12-23T23:35:47.664Z,8.21
2023-12-23T23:38:16.273Z,8.25
2023-12-23T23:40:49.589Z,8.24
2023-12-23T23:43:18.109Z,8.01
2023-12-23T23:45:46.559Z,8.25
2023-12-23T23:48:15.457Z,8.27
2023-12-23T23:50:44.102Z,8.29
2023-12-23T23:53:13.684Z,8.29
2023-12-23T23:55:42.704Z,8.30
2023-12-23T23:58:12.624Z,8.33
